This demonstration page uses our WeatherBlox Daily Observations layout. Learn more.

Left ArrowRight Arrow

36.17497, -115.13722

Hourly Observations for October 5, 2016

Temp ( °F °C ) Dew Point ( °F °C ) Humidity (%) Winds ( mph kmh ) Pressure ( in mb ) Visibility ( mi km ) Precip ( " mm )
12:53 am 00:53 Clear 63 17.2 26 -3.3 25 25 NNW 3 6 29.8 1009 10 16.0934 0 0
1:53 am 01:53 Clear 63 17.2 27 -2.8 26 26 W 6 9 29.81 1010 10 16.0934 0 0
2:53 am 02:53 Clear 65 18.3 23 -5 20 20 WNW 5 7 29.8 1009 10 16.0934 0 0
3:53 am 03:53 Clear 58 14.4 24 -4.4 27 27 NNW 6 9 29.81 1010 10 16.0934 0 0
4:53 am 04:53 Clear 58 14.4 26 -3.3 29 29 WSW 3 6 29.83 1010 10 16.0934 0 0
5:53 am 05:53 Clear 56 13.3 26 -3.3 32 32 Calm 29.85 1011 10 16.0934 0 0
6:53 am 06:53 Sunny 57 13.9 25 -3.9 29 29 WNW 3 6 29.86 1011 10 16.0934 0 0
7:53 am 07:53 Sunny 63 17.2 23 -5 22 22 NNW 10 17 29.87 1012 10 16.0934 0 0
8:53 am 08:53 Sunny 67 19.4 23 -5 19 19 NNE 6 9 29.9 1012 10 16.0934 0 0
9:53 am 09:53 Sunny 70 21.1 23 -5 17 17 VRB 5 7 29.91 1013 10 16.0934 0 0
10:53 am 10:53 Sunny 74 23.3 20 -6.7 13 13 VRB 3 6 29.89 1012 10 16.0934 0 0
11:53 am 11:53 Sunny 76 24.4 22 -5.6 13 13 VRB 5 7 29.88 1012 10 16.0934 0 0
12:53 pm 12:53 Sunny 77 25 22 -5.6 13 13 VRB 6 9 29.86 1011 10 16.0934 0 0
1:53 pm 13:53 Sunny 78 25.6 22 -5.6 12 12 S 5 7 29.83 1010 10 16.0934 0 0
2:53 pm 14:53 Sunny 79 26.1 22 -5.6 12 12 VRB 3 6 29.8 1009 10 16.0934 0 0
3:53 pm 15:53 Sunny 80 26.7 23 -5 12 12 NE 3 6 29.8 1009 10 16.0934 0 0
4:53 pm 16:53 Sunny 79 26.1 23 -5 12 12 Calm 29.79 1009 10 16.0934 0 0
5:53 pm 17:53 Sunny 80 26.7 23 -5 12 12 N 5 7 29.8 1009 10 16.0934 0 0
6:53 pm 18:53 Clear 77 25 23 -5 13 13 Calm 29.81 1010 10 16.0934 0 0
7:53 pm 19:53 Clear 76 24.4 19 -7.2 12 12 NNW 9 15 29.83 1010 10 16.0934 0 0
8:53 pm 20:53 Clear 74 23.3 11 -11.7 9 9 NNW 16 26 29.85 1011 10 16.0934 0 0
9:53 pm 21:53 Clear 73 22.8 8 -13.3 8 8 NNW 20 31 29.87 1012 10 16.0934 0 0
10:53 pm 22:53 Clear 71 21.7 8 -13.3 8 8 NW 17 28 29.88 1012 10 16.0934 0 0
11:53 pm 23:53 Clear 67 19.4 8 -13.3 10 10 N 13 20 29.9 1013 10 16.0934 0 0

Powered by AerisWeather